Time;durP1;ratioP1;P1;durP2;ratioP2;P2;SDS_P1;SDS_P2;PMS_P1;PMS_P2;Temp;Humidity;BMP_temperature;BMP_pressure;BME280_temperature;BME280_humidity;BME280_pressure;Samples;Min_cycle;Max_cycle;Signal;HPM_P1;HPM_P2
2024/01/11 00:01:47;;;;;;;67.82;23.65;;;-8.70;99.90;;;;;;5069055;28;20050;-65
2024/01/11 00:04:13;;;;;;;65.05;24.50;;;-8.70;99.90;;;;;;5085501;28;20374;-64
2024/01/11 00:06:44;;;;;;;57.42;22.17;;;-8.70;99.90;;;;;;5077596;28;20116;-65
2024/01/11 00:09:10;;;;;;;62.72;24.30;;;-8.80;99.90;;;;;;5087227;28;20495;-64
2024/01/11 00:11:36;;;;;;;67.35;26.02;;;-8.80;99.90;;;;;;5076646;28;20025;-65
2024/01/11 00:14:01;;;;;;;65.90;23.33;;;-8.90;99.90;;;;;;5080940;28;20119;-65
2024/01/11 00:16:27;;;;;;;70.88;24.40;;;-8.90;99.90;;;;;;5076860;28;20127;-64
2024/01/11 00:18:52;;;;;;;60.20;22.48;;;-8.90;99.90;;;;;;5079755;28;20108;-65
2024/01/11 00:21:18;;;;;;;60.58;22.90;;;-8.90;99.90;;;;;;5079370;28;20016;-65
2024/01/11 00:23:44;;;;;;;58.72;23.17;;;-8.80;99.90;;;;;;5078243;28;20028;-65
2024/01/11 00:26:12;;;;;;;60.38;23.08;;;-8.70;99.90;;;;;;5080754;28;20455;-65
2024/01/11 00:28:38;;;;;;;68.05;22.60;;;-8.60;99.90;;;;;;5080357;28;20045;-65
2024/01/11 00:31:04;;;;;;;66.75;22.58;;;-8.70;99.90;;;;;;5077169;28;20020;-64
2024/01/11 00:33:30;;;;;;;61.90;24.02;;;-8.70;99.90;;;;;;5078427;28;20111;-65
2024/01/11 00:35:56;;;;;;;63.30;23.52;;;-8.80;99.90;;;;;;5077618;28;20500;-64
2024/01/11 00:38:21;;;;;;;60.55;22.55;;;-8.80;99.90;;;;;;5077513;28;20016;-65
2024/01/11 00:40:47;;;;;;;61.92;22.80;;;-8.80;99.90;;;;;;5085812;28;20038;-65
2024/01/11 00:43:12;;;;;;;52.50;21.40;;;-8.90;99.90;;;;;;5080021;28;20281;-64
2024/01/11 00:45:38;;;;;;;70.60;24.13;;;-8.90;99.90;;;;;;5076977;28;20024;-65
2024/01/11 00:48:04;;;;;;;56.55;23.73;;;-8.90;99.90;;;;;;5079633;28;20130;-64
2024/01/11 00:50:30;;;;;;;61.22;21.92;;;-9.00;99.90;;;;;;5075300;28;20029;-64
2024/01/11 00:52:55;;;;;;;63.78;24.10;;;-9.10;99.90;;;;;;5080261;28;20028;-64
2024/01/11 00:55:21;;;;;;;65.50;22.60;;;-9.20;99.90;;;;;;5078572;28;20028;-64
2024/01/11 00:57:47;;;;;;;57.78;21.67;;;-9.20;99.90;;;;;;5078158;28;20653;-65
2024/01/11 01:00:16;;;;;;;61.05;22.90;;;-9.30;99.90;;;;;;5079476;28;20103;-65
2024/01/11 01:02:41;;;;;;;57.50;20.90;;;-9.20;99.90;;;;;;5080554;28;20086;-65
2024/01/11 01:05:08;;;;;;;68.45;24.27;;;-9.10;99.90;;;;;;5078075;28;20429;-65
2024/01/11 01:07:33;;;;;;;69.00;23.00;;;-9.10;99.90;;;;;;5079341;28;20052;-65
2024/01/11 01:09:59;;;;;;;59.90;22.05;;;-9.10;99.90;;;;;;5077033;28;20055;-65
2024/01/11 01:12:25;;;;;;;59.83;22.08;;;-9.20;99.90;;;;;;5090510;28;20391;-64
2024/01/11 01:14:51;;;;;;;65.40;21.95;;;-9.10;99.90;;;;;;5082558;28;20480;-65
2024/01/11 01:17:17;;;;;;;66.20;22.60;;;-9.10;99.90;;;;;;5080764;28;20062;-65
2024/01/11 01:19:43;;;;;;;66.57;22.60;;;-9.10;99.90;;;;;;5081791;28;20060;-64
2024/01/11 01:22:08;;;;;;;62.20;23.48;;;-9.20;99.90;;;;;;5083636;28;20494;-65
2024/01/11 01:24:34;;;;;;;65.80;23.00;;;-9.20;99.90;;;;;;5086765;28;20021;-64
2024/01/11 01:27:00;;;;;;;54.08;21.90;;;-9.30;99.90;;;;;;5075581;28;20037;-63
2024/01/11 01:29:26;;;;;;;61.47;23.38;;;-9.30;99.90;;;;;;5073470;28;20495;-62
2024/01/11 01:31:52;;;;;;;61.05;22.92;;;-9.40;99.90;;;;;;5076565;28;20024;-63
2024/01/11 01:34:18;;;;;;;62.88;23.67;;;;;;;;;;5090695;28;20490;-63
2024/01/11 01:36:43;;;;;;;60.08;22.75;;;-9.50;99.90;;;;;;5076302;28;20028;-63
2024/01/11 01:39:09;;;;;;;64.60;22.58;;;-9.50;99.90;;;;;;5080383;28;20493;-63
2024/01/11 01:41:35;;;;;;;52.80;20.45;;;-9.40;99.90;;;;;;5087244;28;20262;-63
2024/01/11 01:44:00;;;;;;;54.92;21.08;;;-9.30;99.90;;;;;;5083236;28;20024;-63
2024/01/11 01:46:27;;;;;;;57.25;21.77;;;-9.30;99.90;;;;;;5079926;28;20051;-63
2024/01/11 01:48:55;;;;;;;58.00;21.50;;;-9.30;99.90;;;;;;5080174;28;20025;-63
2024/01/11 01:51:22;;;;;;;58.10;22.17;;;-9.30;99.90;;;;;;5084962;28;20036;-63
2024/01/11 01:53:51;;;;;;;61.60;22.55;;;-9.30;99.90;;;;;;5082943;28;20033;-63
2024/01/11 01:56:18;;;;;;;62.72;22.58;;;-9.40;99.90;;;;;;5080670;28;20426;-63
2024/01/11 01:58:43;;;;;;;54.75;21.52;;;-9.50;99.90;;;;;;5077172;28;20448;-63
2024/01/11 02:01:10;;;;;;;60.63;24.50;;;-9.50;99.90;;;;;;5080603;28;20043;-63
2024/01/11 02:03:36;;;;;;;60.58;20.52;;;-9.60;99.90;;;;;;5079758;28;20029;-64
2024/01/11 02:06:04;;;;;;;64.40;20.73;;;-9.60;99.90;;;;;;5082211;28;20255;-64
2024/01/11 02:08:31;;;;;;;62.35;21.88;;;-9.70;99.90;;;;;;5079855;28;20483;-63
2024/01/11 02:10:59;;;;;;;65.60;20.48;;;-9.80;99.90;;;;;;5083383;28;20024;-63
2024/01/11 02:13:25;;;;;;;61.55;23.13;;;-9.80;99.90;;;;;;5069530;28;20016;-63
2024/01/11 02:15:50;;;;;;;63.60;21.38;;;-9.80;99.90;;;;;;5081065;28;20035;-63
2024/01/11 02:18:16;;;;;;;55.03;21.10;;;-9.70;99.90;;;;;;5078316;28;20020;-63
2024/01/11 02:20:42;;;;;;;65.47;24.27;;;-9.80;99.90;;;;;;5079351;28;20024;-63
2024/01/11 02:23:17;;;;;;;62.25;19.98;;;-9.80;99.90;;;;;;5078045;28;20021;-63
2024/01/11 02:25:42;;;;;;;71.45;22.65;;;-9.80;99.90;;;;;;5076554;28;20035;-63
2024/01/11 02:28:08;;;;;;;50.55;21.17;;;-9.70;99.90;;;;;;5088185;28;20032;-63
2024/01/11 02:30:34;;;;;;;56.45;20.52;;;-9.80;99.90;;;;;;5086413;28;20028;-63
2024/01/11 02:33:01;;;;;;;59.53;21.35;;;-9.80;99.90;;;;;;5080210;28;20107;-64
2024/01/11 02:35:27;;;;;;;59.22;21.23;;;-9.90;99.90;;;;;;5079564;28;20041;-63
2024/01/11 02:37:54;;;;;;;51.45;19.98;;;-10.00;99.90;;;;;;5073861;28;20021;-62
2024/01/11 02:40:20;;;;;;;59.30;20.85;;;-10.00;99.90;;;;;;5082564;28;20024;-63
2024/01/11 02:42:45;;;;;;;63.40;21.60;;;-10.00;99.90;;;;;;5078881;28;20078;-63
2024/01/11 02:45:12;;;;;;;54.47;21.08;;;-10.10;99.90;;;;;;5083035;28;20100;-63
2024/01/11 02:47:38;;;;;;;57.20;20.52;;;-10.10;99.90;;;;;;5081401;28;20031;-63
2024/01/11 02:50:07;;;;;;;58.05;19.27;;;-10.10;99.90;;;;;;5081281;28;20075;-63
2024/01/11 02:52:34;;;;;;;56.03;20.80;;;-10.00;99.90;;;;;;5081953;28;20016;-62
2024/01/11 02:55:00;;;;;;;54.75;21.92;;;-10.00;99.90;;;;;;5080483;28;20037;-63
2024/01/11 02:57:25;;;;;;;53.60;20.55;;;-10.10;99.90;;;;;;5080755;28;20028;-63
2024/01/11 02:59:51;;;;;;;64.30;20.85;;;-10.10;99.90;;;;;;5078238;28;20078;-63
2024/01/11 03:02:17;;;;;;;61.17;21.60;;;-10.00;99.90;;;;;;5080093;28;20048;-63
2024/01/11 03:04:43;;;;;;;55.42;19.58;;;-9.90;99.90;;;;;;5078813;28;20035;-63
2024/01/11 03:07:08;;;;;;;64.38;20.27;;;-9.80;99.90;;;;;;5081008;28;20021;-63
2024/01/11 03:09:34;;;;;;;51.75;19.65;;;-9.80;99.90;;;;;;5080336;28;20036;-63
2024/01/11 03:12:00;;;;;;;58.85;19.90;;;-9.90;99.90;;;;;;5079577;28;20028;-63
2024/01/11 03:14:25;;;;;;;63.58;21.77;;;-10.00;99.90;;;;;;5081864;28;20157;-63
2024/01/11 03:16:51;;;;;;;53.17;19.83;;;-10.10;99.90;;;;;;5077966;28;20527;-63
2024/01/11 03:19:17;;;;;;;56.63;20.80;;;-10.10;99.90;;;;;;5088834;28;20031;-63
2024/01/11 03:21:43;;;;;;;52.78;19.40;;;-10.00;99.90;;;;;;5079035;28;20032;-63
2024/01/11 03:24:09;;;;;;;63.60;21.95;;;-10.10;99.90;;;;;;5080889;28;20071;-63
2024/01/11 03:26:34;;;;;;;59.15;21.73;;;-10.10;99.90;;;;;;5078528;28;20548;-63
2024/01/11 03:29:00;;;;;;;62.67;20.65;;;-10.20;99.90;;;;;;5079321;28;20032;-63
2024/01/11 03:31:26;;;;;;;59.83;22.98;;;-10.20;99.90;;;;;;5081121;28;20458;-63
2024/01/11 03:33:51;;;;;;;52.50;19.90;;;-10.20;99.90;;;;;;5076305;28;20039;-63
2024/01/11 03:36:17;;;;;;;63.45;21.58;;;-10.10;99.90;;;;;;5074479;28;20552;-64
2024/01/11 03:38:42;;;;;;;60.38;19.42;;;-10.10;99.90;;;;;;5080661;28;20025;-63
2024/01/11 03:41:09;;;;;;;47.10;18.30;;;-10.10;99.90;;;;;;5078249;28;20451;-62
2024/01/11 03:43:36;;;;;;;60.28;20.88;;;-10.10;99.90;;;;;;5086671;28;20025;-63
2024/01/11 03:46:01;;;;;;;54.22;21.45;;;-10.20;99.90;;;;;;5080032;28;20471;-65
2024/01/11 03:48:27;;;;;;;52.90;20.05;;;-10.30;99.90;;;;;;5079269;28;20108;-65
2024/01/11 03:50:53;;;;;;;41.65;18.00;;;-10.40;99.90;;;;;;5077955;28;20028;-64
2024/01/11 03:53:18;;;;;;;71.20;23.13;;;-10.30;99.90;;;;;;5081657;28;20599;-64
2024/01/11 03:55:44;;;;;;;52.35;19.98;;;-10.20;99.90;;;;;;5077507;28;20036;-65
2024/01/11 03:58:09;;;;;;;53.00;20.75;;;-10.10;99.90;;;;;;5081787;28;20028;-64
2024/01/11 04:00:35;;;;;;;58.20;21.55;;;-10.10;99.90;;;;;;5079583;28;20629;-64
2024/01/11 04:03:01;;;;;;;60.47;21.15;;;-10.10;99.90;;;;;;5081203;28;20043;-65
2024/01/11 04:05:27;;;;;;;53.47;19.50;;;-10.10;99.90;;;;;;5078759;28;20040;-65
2024/01/11 04:07:53;;;;;;;59.65;21.05;;;-10.20;99.90;;;;;;5078507;28;20078;-64
2024/01/11 04:10:19;;;;;;;63.88;21.25;;;-10.30;99.90;;;;;;5078193;28;20028;-64
2024/01/11 04:12:44;;;;;;;51.72;21.30;;;-10.40;99.90;;;;;;5080939;28;20024;-64
2024/01/11 04:15:14;;;;;;;66.72;21.08;;;-10.40;99.90;;;;;;5076864;28;20046;-64
2024/01/11 04:17:39;;;;;;;58.33;19.77;;;-10.50;99.90;;;;;;5080324;28;20107;-64
2024/01/11 04:20:06;;;;;;;58.80;21.92;;;-10.50;99.90;;;;;;5078788;28;20345;-65
2024/01/11 04:22:32;;;;;;;51.63;20.17;;;-10.50;99.90;;;;;;5078944;28;20050;-64
2024/01/11 04:24:58;;;;;;;59.60;20.50;;;-10.30;99.90;;;;;;5079127;28;20061;-64
2024/01/11 04:27:23;;;;;;;55.38;20.90;;;-10.10;99.90;;;;;;5080090;28;20032;-64
2024/01/11 04:29:49;;;;;;;59.90;20.10;;;-10.10;99.90;;;;;;5077373;28;20091;-64
2024/01/11 04:32:15;;;;;;;54.03;21.85;;;-10.10;99.90;;;;;;5078108;28;20034;-64
2024/01/11 04:34:40;;;;;;;60.72;22.35;;;-10.10;99.90;;;;;;5079978;28;20073;-64
2024/01/11 04:37:06;;;;;;;65.25;22.42;;;-10.20;99.90;;;;;;5078351;28;20037;-64
2024/01/11 04:39:32;;;;;;;71.13;22.58;;;-10.20;99.90;;;;;;5079543;28;20107;-64
2024/01/11 04:41:57;;;;;;;65.93;21.65;;;-10.30;99.90;;;;;;5076616;28;20020;-64
2024/01/11 04:44:23;;;;;;;60.20;22.15;;;-10.30;99.90;;;;;;5085342;28;20074;-64
2024/01/11 04:46:49;;;;;;;59.92;21.25;;;-10.30;99.90;;;;;;5078365;28;20024;-64
2024/01/11 04:49:14;;;;;;;57.42;22.23;;;-10.30;99.90;;;;;;5077703;28;20063;-64
2024/01/11 04:51:40;;;;;;;67.88;25.35;;;-10.20;99.90;;;;;;5081144;28;20025;-64
2024/01/11 04:54:06;;;;;;;64.43;21.88;;;-10.10;99.90;;;;;;5080305;28;20106;-64
2024/01/11 04:56:31;;;;;;;63.38;21.02;;;-9.90;99.90;;;;;;5074886;28;20415;-64
2024/01/11 04:58:58;;;;;;;58.38;21.45;;;-9.90;99.90;;;;;;5075363;28;20024;-64
2024/01/11 05:01:24;;;;;;;61.50;25.23;;;-10.00;99.90;;;;;;5069193;28;20033;-64
2024/01/11 05:03:49;;;;;;;58.40;21.23;;;-10.10;99.90;;;;;;5072385;28;20487;-64
2024/01/11 05:06:16;;;;;;;60.90;21.27;;;-10.20;99.90;;;;;;5084510;28;20037;-64
2024/01/11 05:08:43;;;;;;;71.65;23.98;;;-10.20;99.90;;;;;;5080636;28;20360;-64
2024/01/11 05:11:18;;;;;;;58.83;21.65;;;-10.40;99.90;;;;;;5073283;28;20662;-64
2024/01/11 05:13:47;;;;;;;60.35;21.73;;;-10.40;99.90;;;;;;5076955;28;20423;-64
2024/01/11 05:16:29;;;;;;;61.05;20.45;;;-10.50;99.90;;;;;;5081076;28;20021;-65
2024/01/11 05:18:56;;;;;;;59.05;21.13;;;-10.70;99.90;;;;;;5076862;28;20094;-64
2024/01/11 05:21:22;;;;;;;55.50;18.65;;;-10.80;99.90;;;;;;5078613;28;20116;-65
2024/01/11 05:23:49;;;;;;;55.25;18.88;;;-10.80;99.90;;;;;;5078241;28;20028;-65
2024/01/11 05:26:16;;;;;;;61.30;19.42;;;-10.80;99.90;;;;;;5077277;28;20028;-65
2024/01/11 05:28:42;;;;;;;55.05;20.08;;;-10.80;99.90;;;;;;5077224;28;20459;-64
2024/01/11 05:31:12;;;;;;;66.10;21.63;;;-10.80;99.90;;;;;;5072365;28;20107;-64
2024/01/11 05:33:38;;;;;;;;;;;-10.80;99.90;;;;;;5066689;28;20029;-64
2024/01/11 05:36:04;;;;;;;49.42;20.35;;;-10.80;99.90;;;;;;5077590;28;19990;-64
2024/01/11 05:38:29;;;;;;;53.28;20.40;;;-10.80;99.90;;;;;;5080044;28;20059;-64
2024/01/11 05:40:55;;;;;;;60.33;20.67;;;-10.90;99.90;;;;;;5075429;28;20052;-64
2024/01/11 05:43:23;;;;;;;58.85;20.73;;;-11.00;99.90;;;;;;5070975;28;20034;-65
2024/01/11 05:45:49;;;;;;;67.53;21.65;;;-11.00;99.90;;;;;;5070252;28;20027;-64
2024/01/11 05:48:15;;;;;;;61.70;23.95;;;-11.00;99.90;;;;;;5070357;28;20371;-64
2024/01/11 05:50:41;;;;;;;81.63;28.88;;;-11.00;99.90;;;;;;5075699;28;20372;-64
2024/01/11 05:53:07;;;;;;;76.00;28.50;;;-10.80;99.90;;;;;;5079676;28;20059;-64
2024/01/11 05:55:33;;;;;;;59.05;23.13;;;-10.80;99.90;;;;;;5078730;28;20056;-64
2024/01/11 05:57:58;;;;;;;59.88;22.02;;;-10.70;99.90;;;;;;5078228;28;20498;-64
2024/01/11 06:00:25;;;;;;;54.90;21.45;;;;;;;;;;5079740;28;20552;-64
2024/01/11 06:02:50;;;;;;;54.38;19.92;;;-10.70;99.90;;;;;;5074135;28;20121;-65
2024/01/11 06:05:16;;;;;;;61.92;21.20;;;-10.50;99.90;;;;;;5077172;28;20491;-64
2024/01/11 06:07:42;;;;;;;55.08;20.38;;;-10.50;99.90;;;;;;5076014;28;20028;-65
2024/01/11 06:10:08;;;;;;;64.20;21.80;;;-10.40;99.90;;;;;;5076531;28;20598;-64
2024/01/11 06:12:34;;;;;;;49.60;19.38;;;-10.40;99.90;;;;;;5075176;28;20509;-64
2024/01/11 06:15:01;;;;;;;60.92;20.83;;;-10.40;99.90;;;;;;5069147;28;20527;-64
2024/01/11 06:17:27;;;;;;;52.00;19.48;;;-10.40;99.90;;;;;;5076179;28;20021;-64
2024/01/11 06:19:53;;;;;;;62.72;22.92;;;-10.40;99.90;;;;;;5081494;28;20027;-64
2024/01/11 06:22:18;;;;;;;78.50;28.38;;;-10.40;99.90;;;;;;5078322;28;20016;-65
2024/01/11 06:24:44;;;;;;;62.42;25.08;;;-10.40;99.90;;;;;;5083192;28;20028;-64
2024/01/11 06:27:10;;;;;;;57.80;19.65;;;-10.40;99.90;;;;;;5076743;28;20052;-64
2024/01/11 06:29:35;;;;;;;49.03;19.83;;;-10.30;99.90;;;;;;5084203;28;20127;-64
2024/01/11 06:32:02;;;;;;;58.63;21.52;;;-10.20;99.90;;;;;;5078429;28;20107;-64
2024/01/11 06:34:28;;;;;;;69.78;23.67;;;-10.20;99.90;;;;;;5075351;28;20669;-65
2024/01/11 06:36:54;;;;;;;81.05;29.15;;;-10.10;99.90;;;;;;5070628;28;20032;-65
2024/01/11 06:39:20;;;;;;;87.35;29.63;;;-9.90;99.90;;;;;;5073008;28;20029;-65
2024/01/11 06:41:46;;;;;;;64.43;22.50;;;-9.90;99.90;;;;;;5084393;28;20077;-66
2024/01/11 06:44:11;;;;;;;64.53;23.77;;;-9.80;99.90;;;;;;5074770;28;20029;-65
2024/01/11 06:46:39;;;;;;;70.93;26.50;;;-9.90;99.90;;;;;;5081177;28;20388;-65
2024/01/11 06:49:05;;;;;;;75.53;25.85;;;-10.00;99.90;;;;;;5083589;28;20036;-64
2024/01/11 06:51:30;;;;;;;74.22;25.00;;;-10.00;99.90;;;;;;5078463;28;20505;-64
2024/01/11 06:53:56;;;;;;;70.47;26.63;;;-10.00;99.90;;;;;;5083064;28;20025;-64
2024/01/11 06:56:22;;;;;;;68.05;24.85;;;-10.20;99.90;;;;;;5073622;28;20032;-64
2024/01/11 06:58:48;;;;;;;64.10;23.83;;;-10.20;99.90;;;;;;5077518;28;20024;-64
2024/01/11 07:01:13;;;;;;;63.35;22.30;;;-10.20;99.90;;;;;;5079211;28;20032;-64
2024/01/11 07:03:40;;;;;;;62.83;22.73;;;-10.30;99.90;;;;;;5076384;28;20375;-64
2024/01/11 07:06:05;;;;;;;73.35;26.40;;;-10.40;99.90;;;;;;5076304;28;20032;-64
2024/01/11 07:08:34;;;;;;;79.43;25.45;;;-10.40;99.90;;;;;;5080387;28;20017;-64
2024/01/11 07:11:02;;;;;;;83.60;24.60;;;-10.30;99.90;;;;;;5073453;28;20460;-64
2024/01/11 07:13:28;;;;;;;79.13;25.02;;;-10.30;99.90;;;;;;5080205;28;20535;-64
2024/01/11 07:15:57;;;;;;;70.07;26.83;;;-10.30;99.90;;;;;;5084824;28;20038;-64
2024/01/11 07:18:26;;;;;;;80.68;29.10;;;-10.30;99.90;;;;;;5074529;28;20117;-66
2024/01/11 07:20:58;;;;;;;73.38;25.80;;;-10.30;99.90;;;;;;5077798;28;20139;-66
2024/01/11 07:23:24;;;;;;;70.97;25.88;;;-10.40;99.90;;;;;;5080280;28;20039;-66
2024/01/11 07:25:49;;;;;;;64.93;26.08;;;-10.40;99.90;;;;;;5080258;28;20114;-66
2024/01/11 07:28:17;;;;;;;66.38;24.20;;;-10.40;99.90;;;;;;5079754;28;20033;-66
2024/01/11 07:30:42;;;;;;;65.28;22.45;;;-10.40;99.90;;;;;;5086001;28;20034;-66
2024/01/11 07:33:09;;;;;;;61.47;21.60;;;-10.40;99.90;;;;;;5083935;28;20029;-66
2024/01/11 07:35:35;;;;;;;60.13;22.40;;;-10.30;99.90;;;;;;5079843;28;20024;-65
2024/01/11 07:38:00;;;;;;;62.60;23.67;;;-10.30;99.90;;;;;;5082696;28;20025;-67
2024/01/11 07:40:26;;;;;;;69.47;25.90;;;-10.30;99.90;;;;;;5081465;28;20020;-66
2024/01/11 07:42:52;;;;;;;63.80;22.42;;;-10.30;99.90;;;;;;5078352;28;20028;-66
2024/01/11 07:45:18;;;;;;;68.15;23.02;;;-10.20;99.90;;;;;;5079324;28;20028;-66
2024/01/11 07:47:44;;;;;;;54.90;20.77;;;-10.10;99.90;;;;;;5085984;28;20069;-66
2024/01/11 07:50:12;;;;;;;62.50;21.35;;;-10.00;99.90;;;;;;5085976;28;20028;-67
2024/01/11 07:52:38;;;;;;;60.55;21.25;;;-10.00;99.90;;;;;;5068777;28;20024;-66
2024/01/11 07:55:08;;;;;;;67.10;24.75;;;-10.10;99.90;;;;;;5076827;28;20043;-66
2024/01/11 07:57:34;;;;;;;51.97;20.47;;;-10.00;99.90;;;;;;5079871;28;20044;-66
2024/01/11 08:00:00;;;;;;;64.10;23.02;;;-10.00;99.90;;;;;;5082454;28;20024;-66
2024/01/11 08:02:26;;;;;;;56.55;21.45;;;-10.00;99.90;;;;;;5085990;28;20063;-66
2024/01/11 08:04:52;;;;;;;65.28;23.38;;;-9.90;99.90;;;;;;5076992;28;20225;-67
2024/01/11 08:07:18;;;;;;;65.43;23.40;;;-9.80;99.90;;;;;;5081557;28;20055;-66
2024/01/11 08:09:45;;;;;;;65.55;23.67;;;-9.70;99.90;;;;;;5079061;28;20030;-66
2024/01/11 08:12:14;;;;;;;69.85;25.80;;;-9.60;99.90;;;;;;5087836;28;20024;-66
2024/01/11 08:14:44;;;;;;;77.28;26.50;;;-9.60;99.90;;;;;;5080566;28;20391;-67
2024/01/11 08:17:10;;;;;;;60.35;21.73;;;-9.50;99.90;;;;;;5080341;28;20065;-66
2024/01/11 08:19:36;;;;;;;63.83;24.30;;;-9.40;99.90;;;;;;5080241;28;20555;-66
2024/01/11 08:22:02;;;;;;;62.95;24.02;;;-9.30;99.90;;;;;;5083756;28;20020;-66
2024/01/11 08:24:27;;;;;;;68.13;24.20;;;-9.30;99.90;;;;;;5078964;28;20055;-66
2024/01/11 08:26:53;;;;;;;74.25;26.17;;;-9.20;99.90;;;;;;5081848;28;20063;-66
2024/01/11 08:29:19;;;;;;;63.50;23.52;;;-9.10;99.90;;;;;;5077738;28;20040;-66
2024/01/11 08:31:46;;;;;;;71.18;25.60;;;-9.00;99.90;;;;;;5079309;28;20075;-66
2024/01/11 08:34:11;;;;;;;66.57;24.80;;;-8.90;99.90;;;;;;5078208;28;20020;-66
2024/01/11 08:36:38;;;;;;;61.40;24.42;;;-8.80;99.90;;;;;;5082311;28;20391;-66
2024/01/11 08:39:08;;;;;;;70.05;26.27;;;-8.70;99.90;;;;;;5078840;28;20016;-66
2024/01/11 08:41:35;;;;;;;66.50;26.67;;;-8.70;99.90;;;;;;5079781;28;20421;-66
2024/01/11 08:44:02;;;;;;;63.55;25.25;;;-8.60;99.90;;;;;;5085898;28;20029;-66
2024/01/11 08:46:28;;;;;;;76.43;28.13;;;-8.50;99.90;;;;;;5081277;28;20124;-66
2024/01/11 08:48:55;;;;;;;62.17;23.88;;;-8.50;99.90;;;;;;5077775;28;20111;-66
2024/01/11 08:51:21;;;;;;;75.28;26.25;;;-8.40;99.90;;;;;;5074227;28;20027;-66
2024/01/11 08:53:47;;;;;;;72.53;29.08;;;-8.40;99.90;;;;;;5075923;28;20107;-67
2024/01/11 08:56:13;;;;;;;74.28;29.05;;;-8.40;99.90;;;;;;5079404;28;20108;-66
2024/01/11 08:58:42;;;;;;;72.72;26.90;;;-8.30;99.90;;;;;;5085573;28;20101;-66
2024/01/11 09:01:08;;;;;;;66.57;24.70;;;-8.20;99.90;;;;;;5076601;28;20036;-66
2024/01/11 09:03:35;;;;;;;71.63;27.63;;;-8.00;99.90;;;;;;5080809;28;20043;-66
2024/01/11 09:06:02;;;;;;;68.13;25.70;;;-7.60;99.90;;;;;;5085737;28;20067;-66
2024/01/11 09:08:27;;;;;;;63.17;24.58;;;-6.80;99.90;;;;;;5079863;28;20032;-66
2024/01/11 09:10:53;;;;;;;73.30;25.17;;;-6.10;99.90;;;;;;5084672;28;20078;-66
2024/01/11 09:13:19;;;;;;;50.97;21.83;;;-1.60;99.90;;;;;;5072557;28;20017;-66
2024/01/11 09:15:44;;;;;;;49.90;21.75;;;-4.50;99.90;;;;;;5079253;28;20335;-66
2024/01/11 09:18:10;;;;;;;52.58;22.38;;;-3.30;99.90;;;;;;5076770;28;20097;-66
2024/01/11 09:20:36;;;;;;;53.65;23.10;;;-3.30;99.90;;;;;;5076621;28;20090;-66
2024/01/11 09:23:03;;;;;;;70.00;28.38;;;-2.60;99.90;;;;;;5076490;28;20078;-66
2024/01/11 09:25:32;;;;;;;67.78;26.50;;;-2.00;99.90;;;;;;5075077;28;20490;-65
2024/01/11 09:27:58;;;;;;;62.90;25.30;;;-1.50;99.90;;;;;;5080059;28;20059;-65
2024/01/11 09:30:24;;;;;;;51.78;22.67;;;-0.80;99.90;;;;;;5083954;28;20455;-65
2024/01/11 09:32:49;;;;;;;55.17;21.88;;;-0.30;99.90;;;;;;5080231;28;20434;-65
2024/01/11 09:35:15;;;;;;;47.45;20.70;;;2.10;99.90;;;;;;5079348;28;20052;-65
2024/01/11 09:37:41;;;;;;;52.75;23.55;;;0.50;99.90;;;;;;5081262;28;20031;-62
2024/01/11 09:40:10;;;;;;;51.08;21.85;;;0.80;99.90;;;;;;5077996;28;20043;-62
2024/01/11 09:42:39;;;;;;;54.55;21.42;;;0.90;99.90;;;;;;5087994;28;20013;-62
2024/01/11 09:45:12;;;;;;;53.47;21.75;;;0.90;99.90;;;;;;5082047;28;20063;-62
2024/01/11 09:47:39;;;;;;;44.90;19.90;;;1.00;99.90;;;;;;5079614;28;20024;-62
2024/01/11 09:50:06;;;;;;;43.85;20.48;;;1.40;99.90;;;;;;5080124;28;20032;-62
2024/01/11 09:52:32;;;;;;;57.55;27.00;;;1.80;99.90;;;;;;5080342;28;20416;-62
2024/01/11 09:55:01;;;;;;;54.60;22.77;;;1.90;99.90;;;;;;5078979;28;20021;-61
2024/01/11 09:57:32;;;;;;;42.58;21.33;;;1.40;99.90;;;;;;5081864;28;20532;-62
2024/01/11 09:59:58;;;;;;;53.85;22.75;;;1.00;99.90;;;;;;5080509;28;20024;-63
2024/01/11 10:02:26;;;;;;;52.28;24.00;;;0.80;99.90;;;;;;5080590;28;20092;-62
2024/01/11 10:04:52;;;;;;;48.95;22.98;;;0.60;99.90;;;;;;5086694;28;20138;-65
2024/01/11 10:07:21;;;;;;;53.42;24.30;;;0.10;99.90;;;;;;5084107;28;20032;-64
2024/01/11 10:09:47;;;;;;;61.92;26.13;;;-0.50;99.90;;;;;;5080742;28;20020;-65
2024/01/11 10:12:13;;;;;;;53.10;22.80;;;-1.10;99.90;;;;;;5079188;28;20034;-65
2024/01/11 10:14:39;;;;;;;51.15;21.90;;;-1.40;99.90;;;;;;5079450;28;20157;-62
2024/01/11 10:17:05;;;;;;;58.53;24.48;;;-1.20;99.90;;;;;;5088722;28;20021;-62
2024/01/11 10:19:31;;;;;;;58.90;25.55;;;-1.10;99.90;;;;;;5082144;28;20098;-62
2024/01/11 10:21:58;;;;;;;57.65;23.80;;;-0.80;99.90;;;;;;5079319;28;20078;-62
2024/01/11 10:24:26;;;;;;;59.92;23.88;;;-0.70;99.90;;;;;;5079475;28;20039;-65
2024/01/11 10:26:55;;;;;;;50.33;22.23;;;-0.40;99.90;;;;;;5088125;28;20028;-63
2024/01/11 10:29:21;;;;;;;56.88;23.00;;;0.40;99.90;;;;;;5084905;28;20383;-63
2024/01/11 10:31:47;;;;;;;52.10;22.60;;;1.50;99.90;;;;;;5079519;28;20049;-63
2024/01/11 10:34:12;;;;;;;53.50;22.17;;;2.10;99.90;;;;;;5080029;28;20115;-63
2024/01/11 10:36:40;;;;;;;52.17;23.52;;;2.90;98.30;;;;;;5080878;28;20123;-63
2024/01/11 10:39:07;;;;;;;53.17;23.58;;;3.10;96.50;;;;;;5075036;28;20112;-63
2024/01/11 10:41:40;;;;;;;50.05;21.98;;;3.40;96.00;;;;;;5079722;28;20017;-63
2024/01/11 10:44:17;;;;;;;52.00;24.52;;;3.40;94.90;;;;;;5077731;28;20593;-63
2024/01/11 10:46:45;;;;;;;47.05;21.83;;;4.30;96.80;;;;;;5085585;28;20029;-64
2024/01/11 10:49:16;;;;;;;55.92;21.88;;;3.70;94.60;;;;;;5068219;28;20020;-64
2024/01/11 10:51:46;;;;;;;49.28;22.67;;;4.00;92.10;;;;;;5073335;28;20082;-64
2024/01/11 10:54:14;;;;;;;53.30;24.00;;;3.90;93.90;;;;;;5076693;28;20035;-65
2024/01/11 10:56:43;;;;;;;48.70;22.60;;;3.90;87.90;;;;;;5073647;28;20015;-65
2024/01/11 10:59:10;;;;;;;52.53;25.15;;;3.70;92.80;;;;;;5080474;28;20028;-64
2024/01/11 11:01:39;;;;;;;51.65;22.25;;;3.40;86.60;;;;;;5075299;28;20382;-64
2024/01/11 11:04:07;;;;;;;51.05;22.90;;;3.10;90.50;;;;;;5076512;28;20031;-64
2024/01/11 11:06:34;;;;;;;52.28;23.40;;;3.50;92.70;;;;;;5078137;28;20064;-64
2024/01/11 11:09:03;;;;;;;49.45;22.38;;;4.00;92.20;;;;;;5079015;28;20029;-65
2024/01/11 11:11:30;;;;;;;49.67;22.20;;;4.30;86.60;;;;;;5078024;28;20132;-64
2024/01/11 11:14:00;;;;;;;54.25;23.33;;;5.20;82.60;;;;;;5078079;28;20027;-64
2024/01/11 11:16:26;;;;;;;54.00;22.77;;;4.50;85.10;;;;;;5078416;28;20030;-64
2024/01/11 11:18:55;;;;;;;49.53;22.73;;;4.70;83.20;;;;;;5077668;28;20108;-65
2024/01/11 11:21:21;;;;;;;50.05;22.98;;;5.00;85.00;;;;;;5078774;28;20024;-65
2024/01/11 11:23:47;;;;;;;50.13;24.73;;;5.50;74.30;;;;;;5076872;28;20559;-65
2024/01/11 11:26:18;;;;;;;47.05;22.73;;;5.50;73.60;;;;;;5079450;28;20439;-64
2024/01/11 11:28:46;;;;;;;51.85;24.15;;;5.10;73.70;;;;;;5077266;28;20099;-64
2024/01/11 11:31:12;;;;;;;53.75;24.63;;;4.10;73.40;;;;;;5078025;28;20016;-64
2024/01/11 11:33:38;;;;;;;55.08;24.35;;;3.70;80.50;;;;;;5074241;28;20106;-64
2024/01/11 11:36:04;;;;;;;54.20;24.08;;;3.60;81.70;;;;;;5075791;28;20547;-64
2024/01/11 11:38:30;;;;;;;50.70;22.92;;;3.20;82.20;;;;;;5077804;28;20024;-64
2024/01/11 11:40:58;;;;;;;57.05;23.42;;;3.10;86.50;;;;;;5078296;28;20345;-64
2024/01/11 11:43:27;;;;;;;49.55;22.52;;;3.60;81.70;;;;;;5077006;28;20463;-65
2024/01/11 11:45:53;;;;;;;53.55;22.73;;;3.80;79.00;;;;;;5078051;28;20166;-64
2024/01/11 11:48:36;;;;;;;52.28;24.00;;;3.90;77.30;;;;;;5078687;28;20164;-64
2024/01/11 11:51:12;;;;;;;52.00;24.10;;;3.90;77.50;;;;;;5084142;28;20020;-64
2024/01/11 11:53:40;;;;;;;55.03;25.63;;;3.90;76.80;;;;;;5073137;28;20024;-64
2024/01/11 11:56:06;;;;;;;46.95;23.00;;;4.00;75.30;;;;;;5071753;28;20089;-64
2024/01/11 11:58:34;;;;;;;59.97;24.63;;;4.00;75.40;;;;;;5077939;28;20021;-64
2024/01/11 12:01:02;;;;;;;51.13;24.48;;;3.80;74.90;;;;;;5076955;28;20020;-64
2024/01/11 12:03:33;;;;;;;50.33;22.27;;;3.80;75.10;;;;;;5077048;28;20044;-64
2024/01/11 12:05:59;;;;;;;51.00;24.80;;;3.80;73.40;;;;;;5077381;28;20470;-64
2024/01/11 12:08:25;;;;;;;44.67;19.52;;;3.60;73.20;;;;;;5079012;28;20052;-64
2024/01/11 12:10:52;;;;;;;46.58;20.02;;;4.10;74.90;;;;;;5077785;28;20383;-64
2024/01/11 12:13:20;;;;;;;43.13;19.88;;;4.10;74.20;;;;;;5077076;28;20241;-65
2024/01/11 12:15:46;;;;;;;49.75;23.90;;;4.80;72.90;;;;;;5078459;28;20028;-64
2024/01/11 12:18:12;;;;;;;50.38;24.60;;;4.90;69.40;;;;;;5075571;28;20468;-65
2024/01/11 12:20:38;;;;;;;56.15;25.08;;;4.80;70.00;;;;;;5076255;28;20025;-64
2024/01/11 12:23:04;;;;;;;49.35;23.33;;;4.60;70.30;;;;;;5079487;28;20073;-64